Time;durP1;ratioP1;P1;durP2;ratioP2;P2;SDS_P1;SDS_P2;PMS_P1;PMS_P2;Temp;Humidity;BMP_temperature;BMP_pressure;BME280_temperature;BME280_humidity;BME280_pressure;Samples;Min_cycle;Max_cycle;Signal;HPM_P1;HPM_P2
2023/06/20 00:01:41;;;;;;;10.68;9.60;;;25.10;60.70;;;;;;4225579;28;20127;-59
2023/06/20 00:04:24;;;;;;;;;;;25.10;60.60;;;;;;4210240;28;20085;-59
2023/06/20 00:07:05;;;;;;;12.90;10.15;;;25.10;60.60;;;;;;4208265;28;20275;-59
2023/06/20 00:09:46;;;;;;;11.73;10.57;;;25.10;60.70;;;;;;4209721;28;20177;-59
2023/06/20 00:12:29;;;;;;;13.38;10.43;;;25.00;60.60;;;;;;4239683;27;20095;-59
2023/06/20 00:15:10;;;;;;;;;;;25.00;60.60;;;;;;4241870;27;20050;-59
2023/06/20 00:55:52;;;;;;;10.60;9.23;;;24.90;60.90;;;;;;4640537;23;20302;-62
2023/06/20 01:02:25;;;;;;;9.98;8.98;;;24.90;60.90;;;;;;4000638;29;20045;-60
2023/06/20 01:15:05;;;;;;;10.68;8.82;;;24.80;60.90;;;;;;4609668;23;20436;31
2023/06/20 01:17:55;;;;;;;9.02;8.23;;;24.80;60.90;;;;;;3977397;29;20102;-60
2023/06/20 01:20:43;;;;;;;9.75;8.52;;;24.80;60.90;;;;;;3989332;29;20057;-60
2023/06/20 01:23:31;;;;;;;11.23;9.18;;;24.80;60.90;;;;;;3978239;29;20052;-59
2023/06/20 01:26:18;;;;;;;9.30;8.40;;;24.80;61.00;;;;;;3997767;29;20626;-60
2023/06/20 01:29:06;;;;;;;10.38;9.25;;;24.80;60.90;;;;;;3989516;29;20198;-60
2023/06/20 01:31:51;;;;;;;8.98;8.07;;;24.70;60.90;;;;;;4000517;29;20052;-60
2023/06/20 01:52:38;;;;;;;10.52;8.88;;;24.70;61.00;;;;;;4295149;24;20064;-60
2023/06/20 01:55:43;;;;;;;11.43;9.18;;;24.60;61.10;;;;;;4016033;29;20066;-61
2023/06/20 01:58:49;;;;;;;12.27;9.25;;;24.60;61.10;;;;;;4015472;29;20073;-60
2023/06/20 02:01:43;;;;;;;10.05;8.90;;;24.60;61.80;;;;;;4016055;29;20198;-61
2023/06/20 02:05:05;;;;;;;12.43;9.45;;;24.60;61.00;;;;;;4025479;29;20132;-61
2023/06/20 02:08:21;;;;;;;12.50;10.20;;;24.60;60.90;;;;;;4015868;29;20522;-61
2023/06/20 02:11:06;;;;;;;13.13;9.73;;;24.60;60.60;;;;;;4019070;29;20064;-61
2023/06/20 02:20:54;;;;;;;12.07;9.02;;;24.50;60.90;;;;;;4019243;29;20052;-61
2023/06/20 02:24:16;;;;;;;10.40;8.65;;;24.50;61.00;;;;;;4019067;29;20182;-62
2023/06/20 02:30:06;;;;;;;10.18;9.10;;;24.50;61.20;;;;;;4019368;29;20194;-62
2023/06/20 02:33:00;;;;;;;10.40;9.32;;;24.50;61.20;;;;;;4019323;29;20064;-61
2023/06/20 02:36:13;;;;;;;11.52;9.65;;;24.50;61.20;;;;;;4011215;29;20389;-60
2023/06/20 02:39:02;;;;;;;10.90;9.48;;;24.40;61.20;;;;;;4018918;29;20056;-60
2023/06/20 02:41:53;;;;;;;11.45;9.70;;;24.40;61.20;;;;;;4018916;29;20492;-61
2023/06/20 02:45:12;;;;;;;17.48;9.68;;;24.40;61.10;;;;;;4018624;29;20512;-60
2023/06/20 02:48:35;;;;;;;10.68;8.25;;;24.40;60.90;;;;;;4018826;29;20056;-60
2023/06/20 02:52:05;;;;;;;13.32;8.70;;;24.40;60.90;;;;;;4018491;29;20551;-60
2023/06/20 02:55:25;;;;;;;14.32;9.52;;;24.40;61.80;;;;;;4018758;29;20190;-60
2023/06/20 02:58:13;;;;;;;11.45;9.27;;;24.40;60.80;;;;;;4018836;29;20056;-60
2023/06/20 03:01:00;;;;;;;14.38;9.90;;;24.30;61.00;;;;;;4018825;29;20061;-60
2023/06/20 03:06:51;;;;;;;12.75;10.65;;;24.30;61.00;;;;;;4003219;29;20063;-61
2023/06/20 03:09:41;;;;;;;14.60;10.68;;;24.30;61.20;;;;;;4002249;29;20083;-61
2023/06/20 03:12:25;;;;;;;12.45;9.82;;;24.30;61.30;;;;;;4002321;29;20053;-62
2023/06/20 03:15:17;;;;;;;12.38;9.93;;;24.30;61.50;;;;;;4002190;29;20053;-62
2023/06/20 03:21:24;;;;;;;12.80;10.90;;;24.30;62.50;;;;;;4002302;29;20048;-61
2023/06/20 03:24:20;;;;;;;15.35;10.60;;;24.30;61.70;;;;;;4009112;29;20060;-61
2023/06/20 03:27:02;;;;;;;13.68;10.35;;;24.30;61.80;;;;;;4002439;29;20129;-58
2023/06/20 03:29:46;;;;;;;11.90;10.63;;;24.30;61.90;;;;;;4014980;29;20440;-58
2023/06/20 03:32:40;;;;;;;14.25;10.52;;;24.20;61.90;;;;;;4017250;29;20060;-58
2023/06/20 03:35:40;;;;;;;12.88;11.00;;;24.20;62.00;;;;;;4002246;29;20069;-59
2023/06/20 03:38:22;;;;;;;12.00;10.70;;;24.20;62.10;;;;;;4008970;29;20207;-53
2023/06/20 03:41:13;;;;;;;15.77;11.80;;;24.20;62.10;;;;;;4017378;29;20061;-58
2023/06/20 03:43:56;;;;;;;13.15;10.88;;;24.30;62.50;;;;;;4016284;29;20511;-58
2023/06/20 03:46:38;;;;;;;17.00;11.82;;;24.30;62.50;;;;;;4002108;29;20072;-59
2023/06/20 03:49:21;;;;;;;14.85;12.48;;;24.30;62.50;;;;;;4014276;29;20073;-58
2023/06/20 03:52:04;;;;;;;13.23;11.82;;;24.30;62.50;;;;;;4009030;29;20056;-58
2023/06/20 03:54:45;;;;;;;13.95;11.15;;;24.20;62.50;;;;;;4013132;29;20108;-58
2023/06/20 03:57:31;;;;;;;13.32;11.90;;;24.20;62.50;;;;;;4017074;29;20056;-58
2023/06/20 04:00:25;;;;;;;14.18;11.90;;;24.20;62.60;;;;;;4001267;29;20145;-58
2023/06/20 04:03:12;;;;;;;14.90;12.75;;;24.20;62.60;;;;;;4005952;29;20116;-59
2023/06/20 04:05:54;;;;;;;15.32;13.25;;;24.20;62.60;;;;;;4017627;29;20048;-58
2023/06/20 04:08:36;;;;;;;18.40;12.50;;;24.20;63.40;;;;;;4016593;29;20097;-59
2023/06/20 04:11:19;;;;;;;16.00;12.95;;;24.20;62.50;;;;;;4017606;29;20064;-59
2023/06/20 04:14:00;;;;;;;14.05;12.52;;;24.10;62.60;;;;;;4006728;29;20065;-58
2023/06/20 04:16:41;;;;;;;14.27;12.80;;;24.20;62.70;;;;;;4001201;29;20053;-58
2023/06/20 04:19:27;;;;;;;16.15;13.32;;;24.10;62.80;;;;;;4016372;29;20068;-58
2023/06/20 04:22:12;;;;;;;13.82;12.15;;;24.10;62.90;;;;;;4014636;29;20101;-58
2023/06/20 04:24:53;;;;;;;15.15;13.55;;;24.10;63.10;;;;;;4012791;29;20113;-59
2023/06/20 04:27:38;;;;;;;15.00;13.43;;;24.10;63.00;;;;;;4002013;29;20133;-59
2023/06/20 04:30:24;;;;;;;17.63;14.52;;;24.10;63.10;;;;;;4026839;29;20088;-58
2023/06/20 04:33:08;;;;;;;15.93;12.98;;;24.10;63.20;;;;;;4010756;29;20080;-58
2023/06/20 04:35:55;;;;;;;16.67;13.80;;;24.10;63.40;;;;;;4001240;29;20093;-59
2023/06/20 04:38:38;;;;;;;17.88;14.45;;;24.10;63.40;;;;;;4015772;29;20432;-58
2023/06/20 04:41:23;;;;;;;17.00;14.05;;;24.00;63.30;;;;;;4016463;29;20492;-57
2023/06/20 04:44:08;;;;;;;16.17;13.90;;;24.00;63.40;;;;;;4013075;29;20064;-58
2023/06/20 04:46:49;;;;;;;15.77;13.88;;;24.00;63.50;;;;;;4015926;29;20056;-58
2023/06/20 04:49:33;;;;;;;16.63;13.55;;;24.00;63.60;;;;;;4015764;29;20048;-60
2023/06/20 04:52:17;;;;;;;17.30;13.45;;;24.00;63.70;;;;;;4016732;29;20515;-59
2023/06/20 04:55:02;;;;;;;21.10;14.52;;;24.00;63.80;;;;;;4016139;29;20056;-59
2023/06/20 04:57:47;;;;;;;16.10;14.43;;;24.00;63.90;;;;;;4015892;29;20505;-58
2023/06/20 05:00:30;;;;;;;15.52;13.63;;;24.00;63.90;;;;;;4015826;29;20056;-58
2023/06/20 05:03:13;;;;;;;17.35;13.90;;;24.00;64.00;;;;;;4014371;29;20060;-59
2023/06/20 05:06:01;;;;;;;15.98;14.38;;;24.00;64.10;;;;;;4014514;29;20508;-58
2023/06/20 05:08:52;;;;;;;15.93;14.20;;;24.00;64.10;;;;;;4015957;29;20125;-58
2023/06/20 05:14:49;;;;;;;14.80;13.30;;;24.00;65.30;;;;;;4001842;29;20520;-58
2023/06/20 05:17:32;;;;;;;16.02;13.77;;;23.90;64.30;;;;;;4000640;29;20081;-58
2023/06/20 05:20:18;;;;;;;16.73;13.75;;;23.90;64.30;;;;;;4002012;29;20057;-58
2023/06/20 05:23:03;;;;;;;17.17;14.30;;;23.90;64.40;;;;;;4004753;29;20425;-58
2023/06/20 05:25:46;;;;;;;18.40;13.77;;;23.90;64.40;;;;;;4015361;29;20084;-58
2023/06/20 05:28:30;;;;;;;17.25;13.98;;;23.90;64.60;;;;;;4008441;29;20161;-58
2023/06/20 05:31:16;;;;;;;15.32;13.52;;;23.90;64.60;;;;;;4032303;29;20424;-58
2023/06/20 05:34:03;;;;;;;16.92;13.05;;;23.90;64.70;;;;;;4018777;29;20068;-58
2023/06/20 05:39:55;;;;;;;16.50;14.05;;;23.90;64.90;;;;;;4016760;29;20052;-60
2023/06/20 05:42:41;;;;;;;15.13;13.30;;;23.90;64.70;;;;;;4016364;29;20056;-58
2023/06/20 05:45:30;;;;;;;14.82;12.45;;;23.90;64.90;;;;;;4018821;29;20097;-58
2023/06/20 05:48:16;;;;;;;17.52;12.05;;;23.90;64.90;;;;;;4020081;29;20069;-58
2023/06/20 05:51:03;;;;;;;15.35;11.98;;;23.90;65.00;;;;;;4019687;29;20052;-58
2023/06/20 05:53:44;;;;;;;16.08;12.88;;;23.90;65.00;;;;;;4004348;29;20057;-58
2023/06/20 05:56:30;;;;;;;14.65;13.02;;;23.90;65.00;;;;;;4005595;29;20134;-58
2023/06/20 05:59:17;;;;;;;14.38;12.20;;;23.90;65.00;;;;;;4019662;29;20146;-58
2023/06/20 06:02:40;;;;;;;14.38;12.55;;;23.90;65.00;;;;;;4010199;29;20060;-53
2023/06/20 06:05:36;;;;;;;15.98;12.77;;;23.90;65.00;;;;;;4004392;29;20081;-58
2023/06/20 06:08:22;;;;;;;14.43;12.73;;;23.90;65.10;;;;;;4006979;29;20057;-58
2023/06/20 06:11:15;;;;;;;15.10;12.18;;;23.90;65.30;;;;;;4004434;29;20268;-58
2023/06/20 06:14:08;;;;;;;16.45;12.52;;;23.90;65.30;;;;;;4003290;29;20512;-58
2023/06/20 06:16:52;;;;;;;13.80;12.50;;;23.90;65.50;;;;;;4010745;29;20109;-58
2023/06/20 06:19:55;;;;;;;14.30;12.77;;;23.90;65.50;;;;;;4019394;29;20182;-58
2023/06/20 06:22:46;;;;;;;13.57;12.13;;;23.90;65.60;;;;;;4018920;29;20060;-58
2023/06/20 06:25:29;;;;;;;13.75;11.75;;;23.90;66.00;;;;;;4019403;29;20060;-58
2023/06/20 06:28:13;;;;;;;11.85;10.65;;;24.00;65.70;;;;;;4018995;29;20149;-58
2023/06/20 06:30:58;;;;;;;14.55;12.02;;;24.00;65.70;;;;;;4019492;29;20056;-58
2023/06/20 06:33:43;;;;;;;15.30;12.07;;;24.00;66.70;;;;;;4018187;29;20106;-59
2023/06/20 06:36:28;;;;;;;13.40;11.50;;;24.00;65.60;;;;;;4015965;29;20065;-58
2023/06/20 06:39:29;;;;;;;13.15;11.52;;;24.00;65.90;;;;;;4003985;29;20190;-58
2023/06/20 06:42:12;;;;;;;14.02;11.18;;;24.00;66.80;;;;;;4003685;29;20072;-58
2023/06/20 06:45:19;;;;;;;14.70;11.07;;;24.00;66.60;;;;;;4003521;29;20068;-58
2023/06/20 06:48:30;;;;;;;13.43;11.10;;;24.00;66.00;;;;;;4018903;29;20178;-58
2023/06/20 06:51:16;;;;;;;12.57;10.80;;;24.00;66.00;;;;;;4018288;29;20068;-57
2023/06/20 06:54:03;;;;;;;12.57;10.80;;;24.10;66.10;;;;;;4006527;29;20057;-58
2023/06/20 06:57:08;;;;;;;13.13;11.00;;;24.10;67.00;;;;;;4010855;29;20092;-58
2023/06/20 06:59:51;;;;;;;11.52;10.25;;;24.10;66.40;;;;;;4017917;29;20203;-58
2023/06/20 07:02:32;;;;;;;;;;;24.10;66.00;;;;;;4018593;29;20069;-58
2023/06/20 07:05:19;;;;;;;11.77;10.15;;;24.10;65.90;;;;;;4019090;29;19987;-59
2023/06/20 07:08:20;;;;;;;12.40;10.50;;;24.10;65.90;;;;;;4003743;29;20048;-58
2023/06/20 07:11:14;;;;;;;13.10;10.40;;;24.10;66.10;;;;;;4003621;29;20148;-58
2023/06/20 07:14:00;;;;;;;10.57;9.43;;;24.10;66.10;;;;;;4019125;29;20071;-58
2023/06/20 07:16:52;;;;;;;10.50;9.40;;;24.10;65.80;;;;;;4017435;29;20098;-58
2023/06/20 07:22:48;;;;;;;12.20;9.75;;;24.10;66.00;;;;;;4002519;29;20250;-58
2023/06/20 07:25:30;;;;;;;13.02;9.75;;;24.20;66.20;;;;;;4003361;29;20504;-59
2023/06/20 07:28:28;;;;;;;11.75;10.25;;;24.20;66.30;;;;;;4009133;29;20052;-58
2023/06/20 07:31:25;;;;;;;10.80;9.70;;;24.30;66.30;;;;;;4016894;29;20191;-58
2023/06/20 07:34:13;;;;;;;10.05;9.07;;;24.30;66.20;;;;;;4002207;29;20057;-58
2023/06/20 07:36:57;;;;;;;10.43;9.38;;;24.40;66.50;;;;;;4003262;29;20057;-58
2023/06/20 07:39:46;;;;;;;10.00;9.05;;;24.40;66.70;;;;;;4017884;29;20415;-58
2023/06/20 07:42:31;;;;;;;9.85;8.95;;;24.50;67.10;;;;;;4011366;29;20488;-58
2023/06/20 07:45:18;;;;;;;10.88;9.43;;;24.50;66.90;;;;;;4003020;29;20061;-58
2023/06/20 07:47:59;;;;;;;10.43;9.15;;;24.60;67.00;;;;;;4017742;29;20051;-58
2023/06/20 07:51:00;;;;;;;9.75;8.75;;;24.60;66.80;;;;;;4018238;29;20132;-58
2023/06/20 07:53:43;;;;;;;10.57;9.48;;;24.60;66.80;;;;;;4017627;29;20056;-58
2023/06/20 07:56:29;;;;;;;20.25;9.23;;;24.60;66.70;;;;;;4017994;29;20496;-58
2023/06/20 07:59:13;;;;;;;10.20;9.23;;;24.70;66.80;;;;;;4018224;29;20069;-58
2023/06/20 08:02:31;;;;;;;11.23;9.40;;;24.70;66.60;;;;;;4017675;29;20055;-58
2023/06/20 08:05:41;;;;;;;9.95;8.95;;;24.70;66.90;;;;;;4005043;29;20507;-57
2023/06/20 08:08:45;;;;;;;11.70;9.55;;;24.80;66.80;;;;;;4014778;29;20060;-59
2023/06/20 08:11:40;;;;;;;11.13;9.00;;;24.80;66.70;;;;;;4005469;29;20179;-58
2023/06/20 08:14:26;;;;;;;10.68;9.55;;;24.70;66.60;;;;;;4002609;29;20065;-57
2023/06/20 08:17:14;;;;;;;11.63;10.00;;;24.80;66.70;;;;;;4017442;29;20076;-58
2023/06/20 08:20:11;;;;;;;10.98;9.88;;;24.80;66.60;;;;;;4017150;29;20060;-58
2023/06/20 08:23:03;;;;;;;10.30;9.27;;;24.80;67.40;;;;;;4002009;29;20118;-57
2023/06/20 08:26:15;;;;;;;10.07;9.07;;;24.70;66.40;;;;;;4010061;29;20060;-58
2023/06/20 08:29:08;;;;;;;11.77;9.32;;;24.80;66.50;;;;;;4017578;29;20048;-58
2023/06/20 08:31:54;;;;;;;10.50;9.57;;;24.70;66.50;;;;;;4013558;29;20065;-58
2023/06/20 08:34:42;;;;;;;11.60;10.40;;;24.70;66.50;;;;;;4018380;29;21115;-58
2023/06/20 08:37:25;;;;;;;11.38;10.23;;;24.70;66.40;;;;;;4014400;29;20069;-58
2023/06/20 08:43:29;;;;;;;11.30;10.15;;;24.80;67.50;;;;;;4007335;29;20060;-58
2023/06/20 08:46:17;;;;;;;12.18;10.85;;;24.80;66.50;;;;;;4017112;29;20057;-59
2023/06/20 08:49:15;;;;;;;11.13;10.02;;;24.80;66.70;;;;;;4015934;29;20076;-58
2023/06/20 08:52:11;;;;;;;10.65;9.65;;;24.80;66.50;;;;;;4016923;29;20145;-58
2023/06/20 08:55:10;;;;;;;11.88;10.13;;;24.80;66.90;;;;;;4012383;29;20064;-58
2023/06/20 08:57:59;;;;;;;11.52;9.93;;;24.80;66.80;;;;;;4001663;29;20201;-58
2023/06/20 09:00:56;;;;;;;10.00;8.88;;;24.80;66.80;;;;;;4003882;29;20064;-58
2023/06/20 09:03:56;;;;;;;10.68;9.68;;;24.90;67.30;;;;;;4012542;29;20056;-58
2023/06/20 09:10:01;;;;;;;11.43;10.05;;;24.90;67.50;;;;;;4011587;29;20089;-58
2023/06/20 09:12:48;;;;;;;10.60;9.18;;;24.90;67.80;;;;;;4001728;29;20186;-58
2023/06/20 09:15:29;;;;;;;10.27;9.27;;;24.90;67.80;;;;;;4001838;29;20418;-58
2023/06/20 09:18:17;;;;;;;10.25;9.35;;;25.00;68.00;;;;;;4005620;29;20509;-58
2023/06/20 09:21:19;;;;;;;9.93;8.95;;;25.00;68.10;;;;;;4016789;29;20068;-59
2023/06/20 09:24:11;;;;;;;11.38;10.10;;;25.00;68.20;;;;;;4017256;29;20197;-58
2023/06/20 09:27:10;;;;;;;9.93;9.02;;;25.10;68.60;;;;;;4016299;29;20108;-58
2023/06/20 09:29:56;;;;;;;11.68;9.30;;;25.10;68.40;;;;;;4016717;29;20056;-58
2023/06/20 09:32:49;;;;;;;9.93;9.02;;;25.10;68.30;;;;;;4016404;29;20396;-58
2023/06/20 09:39:01;;;;;;;8.68;7.88;;;25.20;68.30;;;;;;4000771;29;20060;-58
2023/06/20 09:41:54;;;;;;;10.50;9.18;;;25.30;68.50;;;;;;4001457;29;20052;-58
2023/06/20 09:44:49;;;;;;;10.27;9.35;;;25.30;68.90;;;;;;4001274;29;20550;-58
2023/06/20 09:47:44;;;;;;;9.50;8.55;;;25.30;68.20;;;;;;4010559;29;20530;-58
2023/06/20 09:50:36;;;;;;;9.80;8.10;;;25.40;68.30;;;;;;4005721;29;20057;-58
2023/06/20 09:57:02;;;;;;;9.68;8.50;;;25.50;67.90;;;;;;4014990;29;20057;-58
2023/06/20 09:59:57;;;;;;;9.10;7.55;;;25.50;67.90;;;;;;4010435;29;20397;-58
2023/06/20 10:02:50;;;;;;;6.65;6.05;;;25.60;68.00;;;;;;4016925;29;20108;-58
2023/06/20 10:05:38;;;;;;;8.30;7.50;;;25.60;67.90;;;;;;4016118;29;20048;-58
2023/06/20 10:08:26;;;;;;;8.55;7.53;;;25.60;68.80;;;;;;4016105;29;20072;-58
2023/06/20 10:11:14;;;;;;;9.88;6.95;;;25.70;67.90;;;;;;4010561;29;20510;-58
2023/06/20 10:14:14;;;;;;;7.40;6.63;;;25.70;67.70;;;;;;4001224;29;20057;-58
2023/06/20 10:17:15;;;;;;;8.65;7.72;;;25.80;67.40;;;;;;4001163;29;20061;-58
2023/06/20 10:20:28;;;;;;;8.00;7.22;;;25.80;67.20;;;;;;4011316;29;20466;-58
2023/06/20 10:23:20;;;;;;;7.55;6.95;;;25.80;67.50;;;;;;4016390;29;20056;-58
2023/06/20 10:26:10;;;;;;;7.22;6.63;;;25.90;67.20;;;;;;4015790;29;20057;-63
2023/06/20 10:29:10;;;;;;;7.75;6.95;;;25.90;67.10;;;;;;4015072;29;20053;-60
2023/06/20 10:32:03;;;;;;;8.43;7.57;;;25.90;67.00;;;;;;4014987;29;20056;-58
2023/06/20 10:35:11;;;;;;;8.80;7.97;;;26.00;67.10;;;;;;4032365;29;20115;-58
2023/06/20 10:38:07;;;;;;;8.52;7.82;;;26.00;67.40;;;;;;4002588;29;20080;-58
2023/06/20 10:41:06;;;;;;;8.55;7.88;;;26.00;67.40;;;;;;4003602;29;20497;-57
2023/06/20 10:44:11;;;;;;;8.23;7.63;;;26.10;67.30;;;;;;4003562;29;20508;-58
2023/06/20 10:47:12;;;;;;;10.17;7.40;;;26.10;67.10;;;;;;4005007;29;20061;-58
2023/06/20 10:50:00;;;;;;;8.70;7.78;;;26.20;67.30;;;;;;4020712;29;20052;-58
2023/06/20 10:52:46;;;;;;;7.38;6.57;;;26.20;67.50;;;;;;4029058;29;20519;-58
2023/06/20 10:55:41;;;;;;;7.93;7.20;;;26.20;67.10;;;;;;4012469;29;20600;-58
2023/06/20 10:58:38;;;;;;;7.25;6.75;;;26.30;67.10;;;;;;4019037;29;20056;-58
2023/06/20 11:01:29;;;;;;;8.15;7.45;;;26.30;67.40;;;;;;4018974;29;20090;-57
2023/06/20 11:04:15;;;;;;;8.50;7.57;;;26.30;67.10;;;;;;4014368;29;20051;-58
2023/06/20 11:07:06;;;;;;;7.55;6.85;;;26.40;66.90;;;;;;4019039;29;20052;-57
2023/06/20 11:09:58;;;;;;;8.18;7.47;;;26.40;66.90;;;;;;4018528;29;20060;-57
2023/06/20 11:12:48;;;;;;;7.20;6.60;;;26.40;66.80;;;;;;4018412;29;20190;-58
2023/06/20 11:15:36;;;;;;;7.90;7.07;;;26.50;66.80;;;;;;4008688;29;20072;-57
2023/06/20 11:18:20;;;;;;;7.50;6.80;;;26.50;66.40;;;;;;4033098;29;20059;-58
2023/06/20 11:21:15;;;;;;;6.80;6.25;;;26.60;66.50;;;;;;4021569;29;20508;-58
2023/06/20 11:24:32;;;;;;;7.20;6.70;;;26.60;66.50;;;;;;4017278;29;20051;-58
2023/06/20 11:27:52;;;;;;;7.82;7.03;;;26.60;66.00;;;;;;4002481;29;20182;-57
2023/06/20 11:33:47;;;;;;;7.53;6.88;;;26.70;65.60;;;;;;4018301;29;20059;-58
2023/06/20 11:36:32;;;;;;;7.88;6.90;;;26.70;65.80;;;;;;4018373;29;20198;-57
2023/06/20 11:39:37;;;;;;;7.82;7.28;;;26.80;65.60;;;;;;4018529;29;20068;-58
2023/06/20 11:43:02;;;;;;;8.32;7.47;;;26.80;66.40;;;;;;4002860;29;20049;-57
2023/06/20 11:45:48;;;;;;;8.13;7.40;;;26.80;66.00;;;;;;4002921;29;20397;-58
2023/06/20 11:48:37;;;;;;;8.20;7.50;;;26.80;65.80;;;;;;4002056;29;20094;-58
2023/06/20 11:51:30;;;;;;;9.85;8.85;;;26.90;66.10;;;;;;4014199;29;20511;-57
2023/06/20 11:54:26;;;;;;;10.15;9.10;;;26.90;66.20;;;;;;4017633;29;20059;-57
2023/06/20 11:57:11;;;;;;;9.23;8.35;;;26.90;66.00;;;;;;4018376;29;20185;-58
2023/06/20 12:00:14;;;;;;;9.32;8.43;;;27.00;66.20;;;;;;4013491;29;20057;-55
2023/06/20 12:16:40;;;;;;;8.63;7.60;;;27.00;66.00;;;;;;3947186;29;20046;-60
2023/06/20 12:19:22;;;;;;;8.07;7.32;;;27.00;65.90;;;;;;3956478;29;20406;-60
2023/06/20 12:22:17;;;;;;;10.70;9.63;;;27.10;66.10;;;;;;3955596;29;20070;-60
2023/06/20 12:25:10;;;;;;;;;;;27.10;66.40;;;;;;3957066;30;20398;-59
2023/06/20 12:28:02;;;;;;;9.52;8.65;;;27.10;66.00;;;;;;3945348;29;20396;-60
2023/06/20 12:31:11;;;;;;;9.57;8.38;;;27.10;66.00;;;;;;3956049;29;20170;-60
2023/06/20 12:37:18;;;;;;;8.73;7.90;;;27.10;66.20;;;;;;3956275;29;20464;-60
2023/06/20 12:40:03;;;;;;;8.40;7.60;;;27.10;66.30;;;;;;3956340;29;20062;-60
2023/06/20 12:43:28;;;;;;;9.00;8.20;;;27.10;66.40;;;;;;3955693;30;20066;-61
2023/06/20 12:46:13;;;;;;;9.45;8.63;;;27.10;66.20;;;;;;3955865;29;20197;-59
2023/06/20 12:55:10;;;;;;;9.43;8.52;;;27.10;66.30;;;;;;3941452;30;20059;-59
2023/06/20 12:57:52;;;;;;;9.02;8.27;;;27.10;67.20;;;;;;3942014;30;20054;-60
2023/06/20 13:01:08;;;;;;;9.93;9.02;;;27.10;66.30;;;;;;3948018;30;20062;-62
2023/06/20 13:04:08;;;;;;;11.50;8.43;;;27.10;66.40;;;;;;3954933;30;20065;-60
2023/06/20 13:09:57;;;;;;;10.68;9.80;;;27.10;67.20;;;;;;3955892;30;20069;-60
2023/06/20 13:12:45;;;;;;;10.40;9.57;;;27.10;67.20;;;;;;3955258;29;20066;-60
2023/06/20 13:15:33;;;;;;;10.60;9.57;;;27.10;67.10;;;;;;3961938;29;20066;-60
2023/06/20 13:18:28;;;;;;;9.68;8.13;;;27.10;67.50;;;;;;3970937;29;20208;-60
2023/06/20 13:21:32;;;;;;;8.48;7.78;;;27.10;67.50;;;;;;3970531;29;20514;-60
2023/06/20 13:24:13;;;;;;;9.77;8.88;;;27.10;67.30;;;;;;3980223;29;20062;-60
2023/06/20 13:26:55;;;;;;;7.95;7.40;;;27.10;67.20;;;;;;3956064;29;20136;-61
2023/06/20 13:29:43;;;;;;;7.95;7.15;;;27.10;67.20;;;;;;3970660;29;20085;-59
2023/06/20 13:32:25;;;;;;;8.77;7.22;;;27.20;67.50;;;;;;3956084;29;20510;-60
2023/06/20 13:35:08;;;;;;;11.00;8.32;;;27.20;67.40;;;;;;3965730;29;20074;-60
2023/06/20 13:37:59;;;;;;;8.70;7.90;;;27.20;67.40;;;;;;3956046;29;20066;-60
2023/06/20 13:40:41;;;;;;;10.15;9.15;;;27.30;67.00;;;;;;3975427;29;20184;-59
2023/06/20 13:43:30;;;;;;;9.55;8.48;;;27.30;66.70;;;;;;3970413;29;20406;-60
2023/06/20 13:46:51;;;;;;;9.50;8.55;;;27.30;66.70;;;;;;3961199;29;20062;-60
2023/06/20 13:49:47;;;;;;;8.95;8.25;;;27.30;66.70;;;;;;3969996;29;20183;-60
2023/06/20 13:52:33;;;;;;;10.70;9.75;;;27.30;66.50;;;;;;3970166;29;20075;-60
2023/06/20 13:55:25;;;;;;;10.52;9.73;;;27.30;67.10;;;;;;3969772;29;20524;-60
2023/06/20 13:58:22;;;;;;;9.77;8.82;;;27.40;66.60;;;;;;3969695;29;20065;-60
2023/06/20 14:01:09;;;;;;;10.23;9.25;;;27.40;66.40;;;;;;3970709;29;20066;-60
2023/06/20 14:04:12;;;;;;;10.30;9.50;;;27.40;66.60;;;;;;3969988;29;20273;-60
2023/06/20 14:06:57;;;;;;;8.77;7.95;;;27.30;66.70;;;;;;3972817;29;20244;-61
2023/06/20 14:09:41;;;;;;;8.65;7.75;;;27.30;66.50;;;;;;3972548;29;20410;-60
2023/06/20 14:12:29;;;;;;;8.68;7.43;;;27.40;66.40;;;;;;3973610;29;20053;-60
2023/06/20 14:15:42;;;;;;;8.07;7.38;;;27.40;66.10;;;;;;3971054;29;20241;-60
2023/06/20 14:18:28;;;;;;;7.78;7.13;;;27.40;66.40;;;;;;3973280;29;20517;-60
2023/06/20 14:21:19;;;;;;;8.30;7.60;;;27.40;66.30;;;;;;3972407;29;20387;-60
2023/06/20 14:24:02;;;;;;;8.63;7.90;;;27.40;66.30;;;;;;3973226;29;20505;-59
2023/06/20 14:27:11;;;;;;;8.90;7.82;;;27.50;66.40;;;;;;3968668;29;20054;-60
2023/06/20 14:30:11;;;;;;;8.40;7.57;;;27.50;66.40;;;;;;3973160;29;20649;-61
2023/06/20 14:33:06;;;;;;;9.05;7.55;;;27.50;66.40;;;;;;3972727;29;20544;-60
2023/06/20 14:35:52;;;;;;;8.32;7.60;;;27.50;66.20;;;;;;3972971;29;20378;-60
2023/06/20 14:38:47;;;;;;;7.70;7.10;;;27.50;66.20;;;;;;3963344;29;20086;-59
2023/06/20 14:41:29;;;;;;;7.75;7.13;;;27.60;66.20;;;;;;3947109;29;20127;-60
2023/06/20 14:44:11;;;;;;;7.90;7.18;;;27.60;65.90;;;;;;3960303;29;20176;-60
2023/06/20 14:47:15;;;;;;;9.73;9.02;;;27.60;65.70;;;;;;3972831;29;20069;-61
2023/06/20 14:50:00;;;;;;;9.20;8.43;;;27.70;66.20;;;;;;3972858;29;20049;-60
2023/06/20 14:52:48;;;;;;;8.20;7.63;;;27.60;66.10;;;;;;3962763;29;20058;-60
2023/06/20 14:55:32;;;;;;;8.98;7.18;;;27.70;66.40;;;;;;3958106;29;20059;-60
2023/06/20 14:58:12;;;;;;;;;;;27.70;65.80;;;;;;3958331;29;20066;-59
2023/06/20 15:00:58;;;;;;;7.90;7.30;;;27.70;65.50;;;;;;3953397;29;19936;-60
2023/06/20 15:03:42;;;;;;;7.78;7.20;;;27.70;65.40;;;;;;3972990;29;20058;-60
2023/06/20 15:06:25;;;;;;;9.45;8.63;;;27.70;65.60;;;;;;3972523;29;20156;-61
2023/06/20 15:09:09;;;;;;;8.50;7.70;;;27.70;65.70;;;;;;3972618;29;20058;-60
2023/06/20 15:12:01;;;;;;;8.50;7.90;;;27.70;65.80;;;;;;3957239;29;20066;-61
2023/06/20 15:14:43;;;;;;;9.02;8.23;;;27.70;65.70;;;;;;3957758;29;20109;-61
2023/06/20 15:17:25;;;;;;;8.18;7.57;;;27.80;65.90;;;;;;3956980;29;20136;-60
2023/06/20 15:20:11;;;;;;;9.20;7.50;;;27.70;65.90;;;;;;3971186;29;20564;-61
2023/06/20 15:22:55;;;;;;;7.90;7.40;;;27.80;65.70;;;;;;3957483;29;20089;-60
2023/06/20 15:25:43;;;;;;;8.05;7.35;;;27.80;65.40;;;;;;3960039;29;20066;-60
2023/06/20 15:28:30;;;;;;;8.20;7.53;;;27.80;65.10;;;;;;3963275;29;20135;-60
2023/06/20 15:31:33;;;;;;;8.00;7.40;;;27.80;65.10;;;;;;3971620;29;20063;-60
2023/06/20 15:34:17;;;;;;;7.70;7.10;;;27.80;65.10;;;;;;3972033;29;20058;-60
2023/06/20 15:37:11;;;;;;;8.50;7.75;;;27.80;65.30;;;;;;3971766;29;20514;-61
2023/06/20 15:42:54;;;;;;;8.80;8.15;;;27.80;65.00;;;;;;3970947;29;20078;-60
2023/06/20 15:45:40;;;;;;;8.77;8.07;;;27.80;64.90;;;;;;3966638;29;20066;-61
2023/06/20 15:48:24;;;;;;;8.90;8.13;;;27.80;64.90;;;;;;3957066;29;20047;-60
2023/06/20 15:51:07;;;;;;;9.00;8.20;;;27.80;64.90;;;;;;3956653;29;20490;-60
2023/06/20 15:53:52;;;;;;;8.07;7.35;;;27.80;65.10;;;;;;3957108;29;20055;-60
2023/06/20 15:56:53;;;;;;;8.55;7.90;;;27.80;65.10;;;;;;3956184;29;20196;-61
2023/06/20 15:59:43;;;;;;;7.70;7.13;;;27.80;64.90;;;;;;3963485;29;20610;-60
2023/06/20 16:02:33;;;;;;;;;;;27.80;64.80;;;;;;3972001;29;20513;-60
2023/06/20 16:05:20;;;;;;;8.45;7.75;;;27.80;64.80;;;;;;3971551;29;19936;-59
2023/06/20 16:08:04;;;;;;;7.72;7.20;;;27.80;64.70;;;;;;3971842;29;20140;-61
2023/06/20 16:10:57;;;;;;;7.47;6.93;;;27.80;64.70;;;;;;3956514;29;20062;-60
2023/06/20 16:13:53;;;;;;;7.65;7.05;;;27.80;64.40;;;;;;3955407;29;20054;-59
2023/06/20 16:16:41;;;;;;;7.50;6.88;;;27.80;64.40;;;;;;3956288;29;20047;-60
2023/06/20 16:19:36;;;;;;;7.55;6.97;;;27.70;64.30;;;;;;3966052;29;20057;-60
2023/06/20 16:22:37;;;;;;;7.13;6.53;;;27.70;64.20;;;;;;3967408;29;20069;-60
2023/06/20 16:25:40;;;;;;;7.35;6.68;;;27.80;64.40;;;;;;3971134;29;20192;-60
2023/06/20 16:28:53;;;;;;;7.97;7.07;;;27.80;64.40;;;;;;3970282;29;20091;-60
2023/06/20 16:31:35;;;;;;;6.95;6.50;;;27.80;64.30;;;;;;3959592;29;20502;-60
2023/06/20 16:34:19;;;;;;;6.22;5.82;;;27.80;64.40;;;;;;3960100;29;20061;-60
2023/06/20 16:37:04;;;;;;;7.50;7.00;;;27.80;64.50;;;;;;3971269;29;20061;-61
2023/06/20 16:40:07;;;;;;;7.28;6.78;;;27.80;64.50;;;;;;3963547;29;20078;-60
2023/06/20 16:42:48;;;;;;;7.30;6.80;;;27.80;64.60;;;;;;3956427;29;20058;-60
2023/06/20 16:45:36;;;;;;;;;;;27.80;64.50;;;;;;3956216;29;20055;-60
2023/06/20 16:48:20;;;;;;;7.63;6.93;;;27.80;64.40;;;;;;3957992;29;20388;-60
2023/06/20 16:51:07;;;;;;;7.47;6.88;;;27.80;64.50;;;;;;3970014;29;20486;-60
2023/06/20 16:53:50;;;;;;;7.00;6.53;;;27.70;64.50;;;;;;3970816;29;20050;-60
2023/06/20 16:56:31;;;;;;;7.47;6.88;;;27.70;64.60;;;;;;3970904;29;20054;-60
2023/06/20 16:59:16;;;;;;;6.68;6.07;;;27.70;64.50;;;;;;3970707;29;20065;-60
2023/06/20 17:02:06;;;;;;;7.18;6.60;;;27.70;64.50;;;;;;3970939;29;20119;-63
2023/06/20 17:04:52;;;;;;;7.25;6.72;;;27.70;64.60;;;;;;3970835;29;20418;-61